createdAt,value
2017-06-02T17:26:38.759Z,25.91
2017-06-02T17:27:53.968Z,25.85
2017-06-02T17:29:08.105Z,25.76
2017-06-02T17:30:23.335Z,25.69
2017-06-02T17:31:38.850Z,25.64
2017-06-02T17:32:53.614Z,25.63
2017-06-02T17:34:08.502Z,25.63
2017-06-02T17:35:22.828Z,25.57
2017-06-02T17:36:37.821Z,25.54
2017-06-02T17:37:53.256Z,25.55
2017-06-02T17:39:07.752Z,25.58
2017-06-02T17:40:22.436Z,25.61
2017-06-02T17:41:58.722Z,25.64
2017-06-02T17:43:14.399Z,25.6
2017-06-02T17:44:29.481Z,25.54
2017-06-02T17:45:44.492Z,25.5
2017-06-02T17:47:00.140Z,25.46
2017-06-02T17:49:17.478Z,25.42
2017-06-02T17:50:34.066Z,25.32
2017-06-02T17:51:49.268Z,25.29
2017-06-02T17:53:05.036Z,25.31
2017-06-02T17:54:19.400Z,25.35
2017-06-02T17:55:33.890Z,25.41
2017-06-02T17:56:48.754Z,25.47
2017-06-02T17:58:03.132Z,25.51
2017-06-02T17:59:17.537Z,25.52
2017-06-02T18:00:32.474Z,25.55
2017-06-02T18:01:47.452Z,25.56
2017-06-02T18:03:01.850Z,25.56
2017-06-02T18:04:16.176Z,25.57
2017-06-02T18:05:31.190Z,25.6
2017-06-02T18:06:45.582Z,25.61
2017-06-02T18:08:00.284Z,25.63
2017-06-02T18:09:14.854Z,25.6
2017-06-02T18:10:29.119Z,25.58
2017-06-02T18:11:43.926Z,25.54
2017-06-02T18:12:58.934Z,25.51
2017-06-02T18:14:13.295Z,25.5
2017-06-02T18:15:27.591Z,25.51
2017-06-02T18:16:42.525Z,25.54
2017-06-02T18:17:59.455Z,25.53
2017-06-02T18:19:13.389Z,25.53
2017-06-02T18:20:29.127Z,25.55
2017-06-02T18:21:43.866Z,25.56
2017-06-02T18:23:00.407Z,25.56
2017-06-02T18:24:15.478Z,25.57
2017-06-02T18:25:29.683Z,25.56
2017-06-02T18:26:45.699Z,25.55
2017-06-02T18:28:00.353Z,25.57
2017-06-02T18:29:14.989Z,25.56
2017-06-02T18:30:29.278Z,25.54
2017-06-02T18:31:43.269Z,25.51
2017-06-02T18:32:57.656Z,25.5
2017-06-02T18:34:12.764Z,25.48
2017-06-02T18:35:26.687Z,25.46
2017-06-02T18:36:40.618Z,25.45
2017-06-02T18:37:55.661Z,25.46
2017-06-02T18:39:11.054Z,25.43
2017-06-02T18:40:26.597Z,25.4
2017-06-02T18:41:41.710Z,25.35
2017-06-02T18:42:56.133Z,25.28
2017-06-02T18:44:11.466Z,25.23
2017-06-02T18:45:26.518Z,25.16
2017-06-02T18:46:40.857Z,25.1
2017-06-02T18:47:56.260Z,25.04
2017-06-02T18:49:11.385Z,24.97
2017-06-02T18:50:26.627Z,24.91
2017-06-02T18:51:40.613Z,24.87
2017-06-02T18:52:55.108Z,24.83
2017-06-02T18:54:10.763Z,24.79
2017-06-02T18:55:24.693Z,24.74
2017-06-02T18:56:39.382Z,24.68
2017-06-02T18:57:53.476Z,24.64
2017-06-02T18:59:07.824Z,24.58
2017-06-02T19:00:22.510Z,24.53
2017-06-02T19:01:37.249Z,24.47
2017-06-02T19:02:52.278Z,24.43
2017-06-02T19:04:07.025Z,24.4
2017-06-02T19:05:22.002Z,24.39
2017-06-02T19:06:36.110Z,24.38
2017-06-02T19:07:50.078Z,24.38
2017-06-02T19:09:04.965Z,24.39
2017-06-02T19:10:18.940Z,24.38
2017-06-02T19:11:33.288Z,24.36
2017-06-02T19:12:47.966Z,24.34
2017-06-02T19:14:02.420Z,24.33
2017-06-02T19:15:17.980Z,24.32
2017-06-02T19:16:32.743Z,24.32
2017-06-02T19:17:47.359Z,24.3
2017-06-02T19:19:01.735Z,24.29
2017-06-02T19:20:16.713Z,24.29
2017-06-02T19:21:31.310Z,24.29
2017-06-02T19:22:45.829Z,24.29
2017-06-02T19:24:00.275Z,24.29
2017-06-02T19:25:14.258Z,24.3
2017-06-02T19:26:28.242Z,24.3
2017-06-02T19:27:43.310Z,24.29
2017-06-02T19:28:57.800Z,24.31
2017-06-02T19:30:12.080Z,24.32
2017-06-02T19:31:26.376Z,24.33
2017-06-02T19:32:40.674Z,24.33
2017-06-02T19:33:54.629Z,24.31
2017-06-02T19:35:08.557Z,24.31
2017-06-02T19:36:22.499Z,24.29
2017-06-02T19:37:37.234Z,24.3
2017-06-02T19:38:51.147Z,24.29
2017-06-02T19:40:06.659Z,24.28
2017-06-02T19:41:20.831Z,24.26
2017-06-02T19:42:35.130Z,24.25
2017-06-02T19:43:49.854Z,24.25
2017-06-02T19:45:04.221Z,24.24
2017-06-02T19:46:18.829Z,24.23
2017-06-02T19:47:33.108Z,24.2
2017-06-02T19:48:47.037Z,24.16
2017-06-02T19:50:01.755Z,24.14
2017-06-02T19:51:15.746Z,24.12
2017-06-02T19:52:30.019Z,24.11
2017-06-02T19:53:43.933Z,24.11
2017-06-02T19:54:58.947Z,24.08
2017-06-02T19:56:13.989Z,24.05
2017-06-02T19:57:28.238Z,24
2017-06-02T19:58:42.578Z,23.96
2017-06-02T19:59:57.287Z,23.95
2017-06-02T20:01:12.033Z,23.93
2017-06-02T20:02:26.875Z,23.9
2017-06-02T20:03:41.967Z,23.86
2017-06-02T20:04:56.007Z,23.83
2017-06-02T20:06:10.656Z,23.82
2017-06-02T20:07:24.546Z,23.81
2017-06-02T20:08:38.519Z,23.8
2017-06-02T20:09:53.227Z,23.79
2017-06-02T20:11:07.712Z,23.76
2017-06-02T20:12:23.492Z,23.73
2017-06-02T20:13:39.233Z,23.69
2017-06-02T20:14:53.135Z,23.67
2017-06-02T20:16:07.169Z,23.65
2017-06-02T20:17:21.063Z,23.63
2017-06-02T20:18:35.363Z,23.61
2017-06-02T20:19:49.245Z,23.58
2017-06-02T20:21:03.522Z,23.56
2017-06-02T20:22:18.172Z,23.55
2017-06-02T20:23:32.110Z,23.54
2017-06-02T20:24:46.130Z,23.52
2017-06-02T20:26:00.140Z,23.52
2017-06-02T20:27:14.094Z,23.48
2017-06-02T20:28:28.198Z,23.46
2017-06-02T20:29:42.718Z,23.45
2017-06-02T20:32:02.157Z,23.17
2017-06-02T20:33:16.433Z,23.32
2017-06-02T20:35:32.727Z,23.4
2017-06-02T20:36:47.710Z,23.42
2017-06-02T20:38:01.710Z,23.39
2017-06-02T20:39:15.957Z,23.34
2017-06-02T20:40:30.312Z,23.27
2017-06-02T20:41:44.420Z,23.2
2017-06-02T20:42:58.804Z,23.15
2017-06-02T20:44:14.154Z,23.11
2017-06-02T20:45:29.588Z,23.06
2017-06-02T20:46:43.620Z,23.04
2017-06-02T20:47:59.427Z,23
2017-06-02T20:49:14.867Z,22.97
2017-06-02T20:50:29.480Z,22.97
2017-06-02T20:51:43.563Z,22.96
2017-06-02T20:52:57.543Z,22.96
2017-06-02T20:54:11.896Z,22.98
2017-06-02T20:55:26.569Z,23
2017-06-02T20:56:40.569Z,23.04
2017-06-02T20:57:55.551Z,23.09
2017-06-02T20:59:10.938Z,23.12
2017-06-02T21:00:25.118Z,23.15
2017-06-02T21:01:39.399Z,23.16
2017-06-02T21:02:54.010Z,23.18
2017-06-02T21:04:09.421Z,23.19
2017-06-02T21:05:24.082Z,23.21
2017-06-02T21:06:39.222Z,23.21
2017-06-02T21:07:53.162Z,23.21
2017-06-02T21:09:07.794Z,23.24
2017-06-02T21:10:21.800Z,23.28
2017-06-02T21:11:36.697Z,23.3
2017-06-02T21:12:51.656Z,23.34
2017-06-02T21:14:05.600Z,23.37
2017-06-02T21:15:20.223Z,23.42
2017-06-02T21:16:35.157Z,23.43
2017-06-02T21:17:49.828Z,23.46
2017-06-02T21:19:04.509Z,23.48
2017-06-02T21:20:18.415Z,23.49
2017-06-02T21:21:33.018Z,23.47
2017-06-02T21:22:48.097Z,23.48
2017-06-02T21:24:04.709Z,23.48
2017-06-02T21:25:19.847Z,23.47
2017-06-02T21:26:34.169Z,23.46
2017-06-02T21:27:50.023Z,23.46
2017-06-02T21:29:03.933Z,23.46
2017-06-02T21:30:17.850Z,23.44
2017-06-02T21:31:32.061Z,23.44
2017-06-02T21:32:46.710Z,23.43
2017-06-02T21:34:00.997Z,23.42
2017-06-02T21:35:14.990Z,23.42
2017-06-02T21:36:29.638Z,23.41
2017-06-02T21:37:45.848Z,23.4
2017-06-02T21:38:59.889Z,23.41
2017-06-02T21:40:14.789Z,23.4
2017-06-02T21:41:29.167Z,23.4
2017-06-02T21:42:44.965Z,23.43
2017-06-02T21:43:59.482Z,23.42
2017-06-02T21:45:13.977Z,23.4
2017-06-02T21:46:28.289Z,23.37
2017-06-02T21:47:42.594Z,23.36
2017-06-02T21:48:57.038Z,23.35
2017-06-02T21:50:11.275Z,23.37
2017-06-02T21:51:25.309Z,23.4
2017-06-02T21:52:39.787Z,23.42
2017-06-02T21:53:53.749Z,23.45
2017-06-02T21:55:08.429Z,23.44
2017-06-02T21:56:23.175Z,23.44
2017-06-02T21:57:37.228Z,23.42
2017-06-02T21:58:52.166Z,23.39
2017-06-02T22:00:06.836Z,23.37
2017-06-02T22:01:21.136Z,23.35
2017-06-02T22:02:36.125Z,23.34
2017-06-02T22:03:50.792Z,23.33
2017-06-02T22:05:05.365Z,23.32
2017-06-02T22:06:20.341Z,23.32
2017-06-02T22:07:35.052Z,23.29
2017-06-02T22:08:51.055Z,23.26
2017-06-02T22:10:05.960Z,23.26
2017-06-02T22:11:20.989Z,23.24
2017-06-02T22:12:34.909Z,23.23
2017-06-02T22:13:50.130Z,23.22
2017-06-02T22:15:04.766Z,23.2
2017-06-02T22:16:19.785Z,23.18
2017-06-02T22:17:33.754Z,23.17
2017-06-02T22:18:48.088Z,23.18
2017-06-02T22:20:02.075Z,23.18
2017-06-02T22:21:16.722Z,23.19
2017-06-02T22:22:32.074Z,23.2
2017-06-02T22:23:47.960Z,23.19
2017-06-02T22:25:02.246Z,23.18
2017-06-02T22:26:16.778Z,23.18
2017-06-02T22:27:31.778Z,23.16
2017-06-02T22:28:46.691Z,23.14
2017-06-02T22:30:01.540Z,23.13
2017-06-02T22:31:15.860Z,23.14
2017-06-02T22:32:30.667Z,23.15
2017-06-02T22:33:46.013Z,23.15
2017-06-02T22:35:00.960Z,23.14
2017-06-02T22:36:15.845Z,23.16
2017-06-02T22:37:30.701Z,23.18
2017-06-02T22:38:46.067Z,23.21
2017-06-02T22:40:01.366Z,23.25
2017-06-02T22:41:15.320Z,23.29
2017-06-02T22:42:30.228Z,23.33
2017-06-02T22:43:44.863Z,23.34
2017-06-02T22:45:00.459Z,23.35
2017-06-02T22:46:15.235Z,23.34
2017-06-02T22:47:29.672Z,23.32
2017-06-02T22:48:44.285Z,23.3
2017-06-02T22:49:58.997Z,23.27
2017-06-02T22:51:13.761Z,23.22
2017-06-02T22:52:28.811Z,23.19
2017-06-02T22:53:43.570Z,23.18
2017-06-02T22:54:58.672Z,23.17
2017-06-02T22:56:12.957Z,23.15
2017-06-02T22:57:28.378Z,23.14
2017-06-02T22:58:42.674Z,23.12
2017-06-02T22:59:57.743Z,23.09
2017-06-02T23:01:12.148Z,23.06
2017-06-02T23:02:27.882Z,23.03
2017-06-02T23:03:42.863Z,23.01
2017-06-02T23:04:57.733Z,22.99
2017-06-02T23:06:11.799Z,22.99
2017-06-02T23:07:25.694Z,22.99
2017-06-02T23:08:39.713Z,23.01
2017-06-02T23:09:53.645Z,23.04
2017-06-02T23:11:07.851Z,23.04
2017-06-02T23:12:22.115Z,23.02
2017-06-02T23:13:36.188Z,23.02
2017-06-02T23:14:50.471Z,23.03
2017-06-02T23:16:04.837Z,23.05
2017-06-02T23:17:19.155Z,23.07
2017-06-02T23:18:34.555Z,23.11
2017-06-02T23:19:50.070Z,23.11
2017-06-02T23:21:04.341Z,23.14
2017-06-02T23:22:18.711Z,23.15
2017-06-02T23:23:33.733Z,23.14
2017-06-02T23:24:47.722Z,23.11
2017-06-02T23:26:02.118Z,23.11
2017-06-02T23:27:16.907Z,23.08
2017-06-02T23:28:31.141Z,23.05
2017-06-02T23:29:45.410Z,23.01
2017-06-02T23:30:59.996Z,22.99
2017-06-02T23:32:14.459Z,22.98
2017-06-02T23:33:28.749Z,22.99
2017-06-02T23:34:42.807Z,23.01
2017-06-02T23:35:57.091Z,23.04
2017-06-02T23:37:25.895Z,23.05
2017-06-02T23:38:40.208Z,23.1
2017-06-02T23:39:54.209Z,23.12
2017-06-02T23:41:09.060Z,23.14
2017-06-02T23:42:24.188Z,23.16
2017-06-02T23:43:38.915Z,23.16
2017-06-02T23:44:52.899Z,23.12
2017-06-02T23:46:07.263Z,23.08
2017-06-02T23:47:22.694Z,23.04
2017-06-02T23:48:36.719Z,22.98
2017-06-02T23:49:50.887Z,22.92
2017-06-02T23:51:04.834Z,22.86
2017-06-02T23:52:29.384Z,22.8
2017-06-02T23:53:43.993Z,22.74
2017-06-02T23:54:59.993Z,22.69
2017-06-02T23:56:15.604Z,22.63
2017-06-02T23:57:30.012Z,22.59
2017-06-02T23:58:45.118Z,22.57
